Americas : Last Albion Battles

Date Ennemies Players Kills Fame Link
05/03 15:33 0wner, TVOTE, W4H, GirlPowerS2 4 3 1.3m
05/03 15:33 DUX, 0PEN, C00K, COD7, DMK, light chaser 14 6 745.1k
05/03 15:32 FORK, Critical-Hit 7 3 167.3k
05/03 15:32 1979, BUZZ 6 3 240.5k
05/03 15:32 FLT, Faction Wars, El Clan de Ouroboros, TEAM GORILA 4 3 310.1k
05/03 15:31 MOZZY, ULTI, C00K 6 4 25.0k
05/03 15:31 MOIX, Templarios Reales, Night of Depths 4 4 57.1k
05/03 15:31 N0D1, CREME, M A N D A T O R Y, Nosfferathu 10 4 467.3k
05/03 15:30 POEPE, Pyton, BOLAS 6 3 12.0k
05/03 15:30 0wner, UDKs, DIOS CON NOSOTROS_ RIP CHUKITO, Black Rose Queen 6 5 4.3k
05/03 15:30 SIMI0, FLT, Born OfThe Dragon 6 3 72.1k
05/03 15:29 7ho, KULDAUN 4 3 68.5k
05/03 15:28 B00A, POEPE, BOYZ 6 3 39.7k
05/03 15:27 NME, C0SMO, 33, BOYZ, SAO01, LUV, HSCM, ARIS3, setun, NTXC 76 26 3.4m
05/03 15:27 PUPPE, SIUUU, LatinWarriors 7 3 193.1k
05/03 15:27 ROBUX, 0wner, SPECS, setun, TVOTE, PVP10, SABOR, M A N D A T O R Y, La Hermandad Del Oro, HEILPVP 25 7 215.9k
05/03 15:27 ROTA, lMA 9 4 540.4k
05/03 15:26 UWU1, Templarios Reales, Night of Depths, OsCriaBr, Nem Tao Barbaros 5 3 3.5k
05/03 15:26 PBD, DOMIN, ECDO, FURIX, 0P3N, PVP4K, ElDs, UWU1, IRAAX, ITB 33 8 754.5k
05/03 15:26 0wner, CHOL0, Black Rose Queen 4 3 0
05/03 15:25 TERS1, FUR3S, M4MUT, NTXC, ESPVE, FOI FUMADO, T-R-O-P-I-N-H-A-x, SERVIDOR FALIDO, ENERGIA AVA 12 5 680.4k
05/03 15:25 RAPA, CPIZA, Shoes Store 6 4 505.3k
05/03 15:24 Deaths Verdict, The Buchas 4 3 0
05/03 15:24 POEPE, ULTI, Pyton 6 3 2.6k
05/03 15:24 PO3PE, kilo, GUC, This-Promise, MiXueBingChen, OriginPoint 18 6 1.4m
05/03 15:24 PTE, OSWVA, C00K, BERSERKERS_CA 10 4 236.8k
05/03 15:23 PRlME, X0T4, Goz4 e dorme 4 3 1.2m
05/03 15:23 PIT, HRL 5 3 324.8k
05/03 15:21 WINDS, EliteDeath 4 3 148.3k
05/03 15:20 MOZZY, Pyton, Hamburg Kid, P R O 6 5 2.2m
05/03 15:19 HNIC, Idc Gotta Farm 4 3 61.4k
05/03 15:19 MRAK, 0wner, Black Rose Queen 4 3 47.9k
05/03 15:19 RIP1, This-Promise, los tigre 3 3 96.2k
05/03 15:19 Explore The World, SoloPl4ya, Eschaton judgement, mi 2 chamba es albion, Onliners 8 7 253.4k
05/03 15:19 C0SMO, federation des patriote 6 4 296.0k
05/03 15:17 PBD, VDH, MTGA, Bear, Fuwu, ECDO, FURIX, ARIS3, SPECS, setun 59 27 1.4m
05/03 15:17 FLT, Chapolins Br, SantuarioSr 6 3 332.4k
05/03 15:17 B00A, 0wner, Templarios Reales, Black Rose Queen, Tropa dos Comedor de Xota 5 3 4.3k
05/03 15:16 UDKs, Abysss Watchersss, AIea iacta est, Aura-Chill 5 3 194.3k
05/03 15:15 AZTEB, ITB, 33, BOYZ, C00K, 6x1, 9410, NTXC, THOD, SCWMM 20 7 507.2k
05/03 15:15 FURIX, CHOL0, EliteDeath 6 4 140.0k
05/03 15:15 RAPA, POEPE, Pyton 6 3 23.9k
05/03 15:13 UWU1, TUKI, SIUUU, Fancy, DIOS CON NOSOTROS_ RIP CHUKITO 8 6 6.9k
05/03 15:12 TD4H, NAVE FUMETA, 5ymphony Of The Night 4 3 176.8k
05/03 15:11 CLT1S, light chaser 8 3 90.5k
05/03 15:11 C0SMO, ULTI 4 3 0
05/03 15:11 T0C 4 3 145.5k
05/03 15:11 SIMI0, WOH 4 3 107.1k
05/03 15:10 PTE, OSWVA 5 3 250.5k
05/03 15:10 NET, Sex and Depths 4 3 468.5k